Golden Iris — 3FZK4 — position and weather

sailwx.info

Track history (hours):
 
Tides and Currents Weather Stations Pressure Air Temp Water Temp Dewpoint Dewpoint Depression Visibility Wind Speed Wind Dir Waves Ship Positions

Golden Iris

Last reported at 2016-Nov-18 04:11 UTC. Time now 2016-Dec-11 04:18 UTC.
Position N 38°12' E 024°07'.
Warning: this ship's position is 23 days out of date.

Length 163 m; draft 6 m.

Type: Passenger vessel. MMSI: 371771000.

Date/timePositionNaut miles runAvg speedWind from/ knotsBaromVisibWave heightAir tempDewpointWater temp
2016-Nov-18 04:11N 38°12' E 024°07'29 7.6
2016-Nov-18 00:24N 37°48' E 024°28'39 8.0
2016-Nov-17 19:33N 37°25' E 025°07'8 7.8
2016-Nov-17 18:34N 37°20' E 025°15'54011.2
2016-Nov-15 18:32N 32°55' E 034°50'10 1.9
2016-Nov-15 13:31N 32°50' E 034°60'0 0.0
2016-Nov-15 12:31N 32°50' E 034°60'0 0.0
2016-Nov-15 11:31N 32°50' E 034°60'0 0.0
2016-Nov-15 10:31N 32°50' E 034°60'0 0.0
2016-Nov-15 07:31N 32°50' E 034°60'0 0.0
2016-Nov-15 06:31N 32°50' E 034°60'0 0.0
2016-Nov-15 05:52N 32°50' E 034°60'0 0.0
2016-Nov-15 03:31N 32°50' E 034°60'0 0.0
2016-Nov-15 02:31N 32°50' E 034°60'0 0.0
2016-Nov-15 00:31N 32°50' E 034°60'0 0.0
2016-Nov-14 23:43N 32°50' E 034°60'0 0.0
2016-Nov-14 19:31N 32°50' E 034°60'0 0.0
2016-Nov-14 17:31N 32°50' E 034°60'0 0.0
2016-Nov-14 16:31N 32°50' E 034°60'0 0.0
2016-Nov-14 15:31N 32°50' E 034°60'0 0.0
2016-Nov-14 11:31N 32°50' E 034°60'0 0.0
2016-Nov-14 08:31N 32°50' E 034°60'0 0.0
2016-Nov-14 05:31N 32°50' E 034°60'0 0.0
2016-Nov-13 22:31N 32°50' E 034°60'0 0.0
2016-Nov-13 19:31N 32°50' E 034°60'0 0.0
2016-Nov-13 18:31N 32°50' E 034°60'0 0.0
2016-Nov-13 17:31N 32°50' E 034°60'0 0.0
2016-Nov-13 15:31N 32°50' E 034°60'0 0.0
2016-Nov-13 13:31N 32°50' E 034°60'0 0.0
2016-Nov-13 10:31N 32°50' E 034°60'0 0.0
2016-Nov-13 08:31N 32°50' E 034°60'2 0.6
2016-Nov-13 05:33N 32°51' E 034°59'2010.2
2016-Nov-13 03:33N 32°56' E 034°36'4110.2
2016-Nov-12 23:32N 33°31' E 034°11'45 1.3
2016-Nov-11 14:19N 32°57' E 034°46'14 3.8
2016-Nov-11 10:32N 32°49' E 035°00'0 0.0
2016-Nov-11 09:32N 32°49' E 035°00'0 0.0
2016-Nov-11 06:32N 32°49' E 035°00'0 0.0
2016-Nov-11 05:32N 32°49' E 035°00'0 0.0
2016-Nov-11 04:32N 32°49' E 035°00'1 1.0
2016-Nov-11 03:33N 32°50' E 035°01'8 7.6
2016-Nov-11 02:33N 32°53' E 034°53'10 9.6
2016-Nov-11 01:32N 32°55' E 034°42'  
Track history (hours):
 
Tides and Currents Weather Stations Pressure Air Temp Water Temp Dewpoint Dewpoint Depression Visibility Wind Speed Wind Dir Waves Ship Positions

Golden Iris

Last reported at 2016-Nov-18 04:11 UTC. Time now 2016-Dec-11 04:18 UTC.
Position N 38°12' E 024°07'.
Warning: this ship's position is 23 days out of date.

Length 163 m; draft 6 m.

Type: Passenger vessel. MMSI: 371771000.

Date/timePositionNaut miles runAvg speedWind from/ knotsBaromVisibWave heightAir tempDewpointWater temp
2016-Nov-18 04:11N 38°12' E 024°07'29 7.6
2016-Nov-18 00:24N 37°48' E 024°28'39 8.0
2016-Nov-17 19:33N 37°25' E 025°07'8 7.8
2016-Nov-17 18:34N 37°20' E 025°15'54011.2
2016-Nov-15 18:32N 32°55' E 034°50'10 1.9
2016-Nov-15 13:31N 32°50' E 034°60'0 0.0
2016-Nov-15 12:31N 32°50' E 034°60'0 0.0
2016-Nov-15 11:31N 32°50' E 034°60'0 0.0
2016-Nov-15 10:31N 32°50' E 034°60'0 0.0
2016-Nov-15 07:31N 32°50' E 034°60'0 0.0
2016-Nov-15 06:31N 32°50' E 034°60'0 0.0
2016-Nov-15 05:52N 32°50' E 034°60'0 0.0
2016-Nov-15 03:31N 32°50' E 034°60'0 0.0
2016-Nov-15 02:31N 32°50' E 034°60'0 0.0
2016-Nov-15 00:31N 32°50' E 034°60'0 0.0
2016-Nov-14 23:43N 32°50' E 034°60'0 0.0
2016-Nov-14 19:31N 32°50' E 034°60'0 0.0
2016-Nov-14 17:31N 32°50' E 034°60'0 0.0
2016-Nov-14 16:31N 32°50' E 034°60'0 0.0
2016-Nov-14 15:31N 32°50' E 034°60'0 0.0
2016-Nov-14 11:31N 32°50' E 034°60'0 0.0
2016-Nov-14 08:31N 32°50' E 034°60'0 0.0
2016-Nov-14 05:31N 32°50' E 034°60'0 0.0
2016-Nov-13 22:31N 32°50' E 034°60'0 0.0
2016-Nov-13 19:31N 32°50' E 034°60'0 0.0
2016-Nov-13 18:31N 32°50' E 034°60'0 0.0
2016-Nov-13 17:31N 32°50' E 034°60'0 0.0
2016-Nov-13 15:31N 32°50' E 034°60'0 0.0
2016-Nov-13 13:31N 32°50' E 034°60'0 0.0
2016-Nov-13 10:31N 32°50' E 034°60'0 0.0
2016-Nov-13 08:31N 32°50' E 034°60'2 0.6
2016-Nov-13 05:33N 32°51' E 034°59'2010.2
2016-Nov-13 03:33N 32°56' E 034°36'4110.2
2016-Nov-12 23:32N 33°31' E 034°11'45 1.3
2016-Nov-11 14:19N 32°57' E 034°46'14 3.8
2016-Nov-11 10:32N 32°49' E 035°00'0 0.0
2016-Nov-11 09:32N 32°49' E 035°00'0 0.0
2016-Nov-11 06:32N 32°49' E 035°00'0 0.0
2016-Nov-11 05:32N 32°49' E 035°00'0 0.0
2016-Nov-11 04:32N 32°49' E 035°00'1 1.0
2016-Nov-11 03:33N 32°50' E 035°01'8 7.6
2016-Nov-11 02:33N 32°53' E 034°53'10 9.6
2016-Nov-11 01:32N 32°55' E 034°42'  

Dump ship's entire track history